sensor_id;sensor_type;location;lat;lon;timestamp;P1;durP1;ratioP1;P2;durP2;ratioP2
37997;SDS011;24079;51.824;4.682;2023-05-07T00:02:06;32.65;;;29.05;;
37997;SDS011;24079;51.824;4.682;2023-05-07T00:04:32;32.15;;;28.33;;
37997;SDS011;24079;51.824;4.682;2023-05-07T00:07:02;35.95;;;27.77;;
37997;SDS011;24079;51.824;4.682;2023-05-07T00:09:27;30.00;;;25.67;;
37997;SDS011;24079;51.824;4.682;2023-05-07T00:11:53;32.05;;;26.00;;
37997;SDS011;24079;51.824;4.682;2023-05-07T00:14:19;30.20;;;22.20;;
37997;SDS011;24079;51.824;4.682;2023-05-07T00:16:45;29.92;;;21.80;;
37997;SDS011;24079;51.824;4.682;2023-05-07T00:19:11;23.40;;;19.73;;
37997;SDS011;24079;51.824;4.682;2023-05-07T00:21:37;27.73;;;21.17;;
37997;SDS011;24079;51.824;4.682;2023-05-07T00:24:02;24.08;;;19.83;;
37997;SDS011;24079;51.824;4.682;2023-05-07T00:26:28;31.35;;;22.00;;
37997;SDS011;24079;51.824;4.682;2023-05-07T00:28:54;32.03;;;24.17;;
37997;SDS011;24079;51.824;4.682;2023-05-07T00:31:20;30.10;;;22.00;;
37997;SDS011;24079;51.824;4.682;2023-05-07T00:33:46;31.63;;;24.92;;
37997;SDS011;24079;51.824;4.682;2023-05-07T00:36:12;28.60;;;24.65;;
37997;SDS011;24079;51.824;4.682;2023-05-07T00:38:38;30.83;;;25.27;;
37997;SDS011;24079;51.824;4.682;2023-05-07T00:41:04;29.27;;;23.88;;
37997;SDS011;24079;51.824;4.682;2023-05-07T00:43:31;30.67;;;25.52;;
37997;SDS011;24079;51.824;4.682;2023-05-07T00:45:57;30.70;;;25.77;;
37997;SDS011;24079;51.824;4.682;2023-05-07T00:48:23;31.30;;;26.05;;
37997;SDS011;24079;51.824;4.682;2023-05-07T00:50:50;33.38;;;26.48;;
37997;SDS011;24079;51.824;4.682;2023-05-07T00:53:17;31.88;;;26.98;;
37997;SDS011;24079;51.824;4.682;2023-05-07T00:55:43;34.53;;;27.60;;
37997;SDS011;24079;51.824;4.682;2023-05-07T00:58:08;27.80;;;23.75;;
37997;SDS011;24079;51.824;4.682;2023-05-07T01:00:34;30.23;;;25.23;;
37997;SDS011;24079;51.824;4.682;2023-05-07T01:03:00;29.50;;;24.38;;
37997;SDS011;24079;51.824;4.682;2023-05-07T01:05:26;29.88;;;23.42;;
37997;SDS011;24079;51.824;4.682;2023-05-07T01:07:53;27.98;;;22.48;;
37997;SDS011;24079;51.824;4.682;2023-05-07T01:10:21;30.23;;;22.73;;
37997;SDS011;24079;51.824;4.682;2023-05-07T01:12:47;27.30;;;22.48;;
37997;SDS011;24079;51.824;4.682;2023-05-07T01:15:14;28.45;;;22.52;;
37997;SDS011;24079;51.824;4.682;2023-05-07T01:17:41;26.42;;;22.05;;
37997;SDS011;24079;51.824;4.682;2023-05-07T01:20:07;24.92;;;19.95;;
37997;SDS011;24079;51.824;4.682;2023-05-07T01:22:35;25.67;;;21.33;;
37997;SDS011;24079;51.824;4.682;2023-05-07T01:25:05;24.58;;;21.50;;
37997;SDS011;24079;51.824;4.682;2023-05-07T01:27:32;24.65;;;20.83;;
37997;SDS011;24079;51.824;4.682;2023-05-07T01:30:02;25.85;;;19.75;;
37997;SDS011;24079;51.824;4.682;2023-05-07T01:32:31;25.80;;;19.90;;
37997;SDS011;24079;51.824;4.682;2023-05-07T01:35:05;22.70;;;18.67;;
37997;SDS011;24079;51.824;4.682;2023-05-07T01:37:32;24.40;;;19.27;;
37997;SDS011;24079;51.824;4.682;2023-05-07T01:39:59;22.25;;;18.98;;
37997;SDS011;24079;51.824;4.682;2023-05-07T01:42:25;24.73;;;17.92;;
37997;SDS011;24079;51.824;4.682;2023-05-07T01:44:51;25.42;;;18.35;;
37997;SDS011;24079;51.824;4.682;2023-05-07T01:47:17;19.77;;;17.35;;
37997;SDS011;24079;51.824;4.682;2023-05-07T01:49:43;22.50;;;17.30;;
37997;SDS011;24079;51.824;4.682;2023-05-07T01:52:10;20.52;;;17.23;;
37997;SDS011;24079;51.824;4.682;2023-05-07T01:54:36;19.27;;;16.05;;
37997;SDS011;24079;51.824;4.682;2023-05-07T01:57:02;21.02;;;16.40;;
37997;SDS011;24079;51.824;4.682;2023-05-07T01:59:28;21.25;;;16.48;;
37997;SDS011;24079;51.824;4.682;2023-05-07T02:01:54;20.85;;;15.90;;
37997;SDS011;24079;51.824;4.682;2023-05-07T02:04:20;21.08;;;17.38;;
37997;SDS011;24079;51.824;4.682;2023-05-07T02:06:46;21.52;;;16.20;;
37997;SDS011;24079;51.824;4.682;2023-05-07T02:09:13;22.30;;;16.30;;
37997;SDS011;24079;51.824;4.682;2023-05-07T02:11:40;18.63;;;15.05;;
37997;SDS011;24079;51.824;4.682;2023-05-07T02:14:06;20.92;;;15.07;;
37997;SDS011;24079;51.824;4.682;2023-05-07T02:16:32;18.10;;;14.68;;
37997;SDS011;24079;51.824;4.682;2023-05-07T02:18:58;16.73;;;14.90;;
37997;SDS011;24079;51.824;4.682;2023-05-07T02:21:24;19.48;;;15.00;;
37997;SDS011;24079;51.824;4.682;2023-05-07T02:23:50;20.08;;;14.70;;
37997;SDS011;24079;51.824;4.682;2023-05-07T02:26:15;18.63;;;14.63;;
37997;SDS011;24079;51.824;4.682;2023-05-07T02:28:41;20.50;;;15.38;;
37997;SDS011;24079;51.824;4.682;2023-05-07T02:31:07;18.58;;;13.75;;
37997;SDS011;24079;51.824;4.682;2023-05-07T02:33:32;19.25;;;14.15;;
37997;SDS011;24079;51.824;4.682;2023-05-07T02:36:06;19.27;;;13.55;;
37997;SDS011;24079;51.824;4.682;2023-05-07T02:38:35;21.38;;;13.80;;
37997;SDS011;24079;51.824;4.682;2023-05-07T02:41:01;19.52;;;14.25;;
37997;SDS011;24079;51.824;4.682;2023-05-07T02:43:27;17.25;;;13.40;;
37997;SDS011;24079;51.824;4.682;2023-05-07T02:46:06;18.40;;;13.00;;
37997;SDS011;24079;51.824;4.682;2023-05-07T02:48:34;15.82;;;12.70;;
37997;SDS011;24079;51.824;4.682;2023-05-07T02:51:00;20.17;;;13.38;;
37997;SDS011;24079;51.824;4.682;2023-05-07T02:53:26;15.32;;;11.73;;
37997;SDS011;24079;51.824;4.682;2023-05-07T02:55:53;20.08;;;12.88;;
37997;SDS011;24079;51.824;4.682;2023-05-07T02:58:19;18.00;;;13.15;;
37997;SDS011;24079;51.824;4.682;2023-05-07T03:00:45;17.90;;;13.20;;
37997;SDS011;24079;51.824;4.682;2023-05-07T03:03:13;16.27;;;12.57;;
37997;SDS011;24079;51.824;4.682;2023-05-07T03:05:39;19.90;;;13.45;;
37997;SDS011;24079;51.824;4.682;2023-05-07T03:08:06;16.10;;;12.80;;
37997;SDS011;24079;51.824;4.682;2023-05-07T03:10:33;17.48;;;12.75;;
37997;SDS011;24079;51.824;4.682;2023-05-07T03:13:00;16.02;;;11.52;;
37997;SDS011;24079;51.824;4.682;2023-05-07T03:15:27;19.80;;;14.15;;
37997;SDS011;24079;51.824;4.682;2023-05-07T03:17:53;18.38;;;12.73;;
37997;SDS011;24079;51.824;4.682;2023-05-07T03:20:19;19.17;;;13.35;;
37997;SDS011;24079;51.824;4.682;2023-05-07T03:22:45;20.17;;;13.55;;
37997;SDS011;24079;51.824;4.682;2023-05-07T03:25:11;15.50;;;12.50;;
37997;SDS011;24079;51.824;4.682;2023-05-07T03:27:39;19.67;;;13.25;;
37997;SDS011;24079;51.824;4.682;2023-05-07T03:30:07;20.13;;;12.55;;
37997;SDS011;24079;51.824;4.682;2023-05-07T03:32:34;19.63;;;13.05;;
37997;SDS011;24079;51.824;4.682;2023-05-07T03:35:01;21.75;;;13.65;;
37997;SDS011;24079;51.824;4.682;2023-05-07T03:37:27;19.17;;;13.43;;
37997;SDS011;24079;51.824;4.682;2023-05-07T03:39:53;19.95;;;12.55;;
37997;SDS011;24079;51.824;4.682;2023-05-07T03:42:19;18.42;;;11.90;;
37997;SDS011;24079;51.824;4.682;2023-05-07T03:44:45;17.83;;;12.95;;
37997;SDS011;24079;51.824;4.682;2023-05-07T03:47:11;16.42;;;12.73;;
37997;SDS011;24079;51.824;4.682;2023-05-07T03:49:39;15.85;;;12.93;;
37997;SDS011;24079;51.824;4.682;2023-05-07T03:52:05;22.02;;;14.05;;
37997;SDS011;24079;51.824;4.682;2023-05-07T03:54:32;20.13;;;13.73;;
37997;SDS011;24079;51.824;4.682;2023-05-07T03:56:58;18.30;;;13.55;;
37997;SDS011;24079;51.824;4.682;2023-05-07T03:59:24;20.40;;;14.23;;
37997;SDS011;24079;51.824;4.682;2023-05-07T04:01:50;22.85;;;14.82;;
37997;SDS011;24079;51.824;4.682;2023-05-07T04:04:16;18.00;;;13.68;;
37997;SDS011;24079;51.824;4.682;2023-05-07T04:06:42;18.17;;;14.43;;
37997;SDS011;24079;51.824;4.682;2023-05-07T04:09:08;22.20;;;14.55;;
37997;SDS011;24079;51.824;4.682;2023-05-07T04:11:35;20.05;;;14.15;;
37997;SDS011;24079;51.824;4.682;2023-05-07T04:14:01;19.73;;;15.25;;
37997;SDS011;24079;51.824;4.682;2023-05-07T04:16:27;17.98;;;13.80;;
37997;SDS011;24079;51.824;4.682;2023-05-07T04:18:53;22.38;;;14.05;;
37997;SDS011;24079;51.824;4.682;2023-05-07T04:21:19;20.67;;;14.20;;
37997;SDS011;24079;51.824;4.682;2023-05-07T04:23:46;17.90;;;13.45;;
37997;SDS011;24079;51.824;4.682;2023-05-07T04:26:13;19.10;;;14.52;;
37997;SDS011;24079;51.824;4.682;2023-05-07T04:28:40;18.13;;;14.23;;
37997;SDS011;24079;51.824;4.682;2023-05-07T04:31:06;19.92;;;14.65;;
37997;SDS011;24079;51.824;4.682;2023-05-07T04:33:33;19.92;;;15.23;;
37997;SDS011;24079;51.824;4.682;2023-05-07T04:36:03;25.27;;;15.93;;
37997;SDS011;24079;51.824;4.682;2023-05-07T04:38:30;20.70;;;16.27;;
37997;SDS011;24079;51.824;4.682;2023-05-07T04:40:57;22.33;;;16.75;;
37997;SDS011;24079;51.824;4.682;2023-05-07T04:43:27;22.25;;;16.80;;
37997;SDS011;24079;51.824;4.682;2023-05-07T04:45:53;21.65;;;15.25;;
37997;SDS011;24079;51.824;4.682;2023-05-07T04:48:20;23.58;;;15.75;;
37997;SDS011;24079;51.824;4.682;2023-05-07T04:50:49;25.95;;;15.90;;
37997;SDS011;24079;51.824;4.682;2023-05-07T04:53:16;21.50;;;16.75;;
37997;SDS011;24079;51.824;4.682;2023-05-07T04:55:43;21.67;;;17.75;;
37997;SDS011;24079;51.824;4.682;2023-05-07T04:58:10;26.38;;;17.38;;
37997;SDS011;24079;51.824;4.682;2023-05-07T05:00:37;23.27;;;17.77;;
37997;SDS011;24079;51.824;4.682;2023-05-07T05:03:04;21.13;;;16.70;;
37997;SDS011;24079;51.824;4.682;2023-05-07T05:05:31;24.48;;;19.13;;
37997;SDS011;24079;51.824;4.682;2023-05-07T05:07:56;23.95;;;17.85;;
37997;SDS011;24079;51.824;4.682;2023-05-07T05:10:22;20.90;;;16.95;;
37997;SDS011;24079;51.824;4.682;2023-05-07T05:12:47;27.73;;;19.20;;
37997;SDS011;24079;51.824;4.682;2023-05-07T05:15:13;22.38;;;17.77;;
37997;SDS011;24079;51.824;4.682;2023-05-07T05:17:39;22.77;;;17.20;;
37997;SDS011;24079;51.824;4.682;2023-05-07T05:20:05;26.02;;;17.52;;
37997;SDS011;24079;51.824;4.682;2023-05-07T05:22:31;26.30;;;19.55;;
37997;SDS011;24079;51.824;4.682;2023-05-07T05:24:57;23.92;;;18.80;;
37997;SDS011;24079;51.824;4.682;2023-05-07T05:27:23;24.65;;;17.88;;
37997;SDS011;24079;51.824;4.682;2023-05-07T05:29:49;20.08;;;17.30;;
37997;SDS011;24079;51.824;4.682;2023-05-07T05:32:14;24.08;;;17.48;;
37997;SDS011;24079;51.824;4.682;2023-05-07T05:34:40;19.67;;;15.48;;
37997;SDS011;24079;51.824;4.682;2023-05-07T05:37:06;25.15;;;16.70;;
37997;SDS011;24079;51.824;4.682;2023-05-07T05:39:31;26.13;;;18.63;;
37997;SDS011;24079;51.824;4.682;2023-05-07T05:41:57;26.02;;;18.45;;
37997;SDS011;24079;51.824;4.682;2023-05-07T05:44:22;27.85;;;19.73;;
37997;SDS011;24079;51.824;4.682;2023-05-07T05:46:48;25.77;;;18.80;;
37997;SDS011;24079;51.824;4.682;2023-05-07T05:49:14;24.48;;;17.45;;
37997;SDS011;24079;51.824;4.682;2023-05-07T05:51:40;22.65;;;16.10;;
37997;SDS011;24079;51.824;4.682;2023-05-07T05:54:06;24.98;;;18.23;;
37997;SDS011;24079;51.824;4.682;2023-05-07T05:56:31;22.85;;;16.58;;
37997;SDS011;24079;51.824;4.682;2023-05-07T05:58:57;26.05;;;18.02;;
37997;SDS011;24079;51.824;4.682;2023-05-07T06:01:23;26.65;;;19.08;;
37997;SDS011;24079;51.824;4.682;2023-05-07T06:03:49;25.15;;;18.85;;
37997;SDS011;24079;51.824;4.682;2023-05-07T06:06:14;30.08;;;19.98;;
37997;SDS011;24079;51.824;4.682;2023-05-07T06:08:40;25.95;;;20.35;;
37997;SDS011;24079;51.824;4.682;2023-05-07T06:11:07;28.48;;;21.42;;
37997;SDS011;24079;51.824;4.682;2023-05-07T06:13:32;25.65;;;19.35;;
37997;SDS011;24079;51.824;4.682;2023-05-07T06:15:58;27.40;;;20.42;;
37997;SDS011;24079;51.824;4.682;2023-05-07T06:18:23;25.90;;;19.75;;
37997;SDS011;24079;51.824;4.682;2023-05-07T06:20:50;23.15;;;17.30;;
37997;SDS011;24079;51.824;4.682;2023-05-07T06:23:16;28.67;;;20.17;;
37997;SDS011;24079;51.824;4.682;2023-05-07T06:25:42;24.65;;;20.38;;
37997;SDS011;24079;51.824;4.682;2023-05-07T06:28:13;26.20;;;20.17;;
37997;SDS011;24079;51.824;4.682;2023-05-07T06:30:39;25.73;;;19.95;;
37997;SDS011;24079;51.824;4.682;2023-05-07T06:33:05;24.52;;;19.55;;
37997;SDS011;24079;51.824;4.682;2023-05-07T06:35:31;26.23;;;20.45;;
37997;SDS011;24079;51.824;4.682;2023-05-07T06:37:56;24.45;;;20.08;;
37997;SDS011;24079;51.824;4.682;2023-05-07T06:40:22;26.30;;;21.85;;
37997;SDS011;24079;51.824;4.682;2023-05-07T06:42:47;30.10;;;23.48;;
37997;SDS011;24079;51.824;4.682;2023-05-07T06:45:13;29.15;;;24.17;;
37997;SDS011;24079;51.824;4.682;2023-05-07T06:47:39;29.33;;;24.25;;
37997;SDS011;24079;51.824;4.682;2023-05-07T06:50:04;28.60;;;22.58;;
37997;SDS011;24079;51.824;4.682;2023-05-07T06:52:30;29.27;;;24.50;;
37997;SDS011;24079;51.824;4.682;2023-05-07T06:54:56;31.90;;;24.92;;
37997;SDS011;24079;51.824;4.682;2023-05-07T06:57:22;27.67;;;22.77;;
37997;SDS011;24079;51.824;4.682;2023-05-07T06:59:49;30.25;;;24.10;;
37997;SDS011;24079;51.824;4.682;2023-05-07T07:02:14;28.10;;;23.33;;
37997;SDS011;24079;51.824;4.682;2023-05-07T07:04:40;27.08;;;22.35;;
37997;SDS011;24079;51.824;4.682;2023-05-07T07:07:06;25.25;;;21.15;;
37997;SDS011;24079;51.824;4.682;2023-05-07T07:09:32;25.55;;;21.02;;
37997;SDS011;24079;51.824;4.682;2023-05-07T07:11:58;26.17;;;21.92;;
37997;SDS011;24079;51.824;4.682;2023-05-07T07:14:24;28.00;;;22.35;;
37997;SDS011;24079;51.824;4.682;2023-05-07T07:16:49;28.17;;;21.52;;
37997;SDS011;24079;51.824;4.682;2023-05-07T07:19:15;24.50;;;21.65;;
37997;SDS011;24079;51.824;4.682;2023-05-07T07:21:41;25.23;;;20.88;;
37997;SDS011;24079;51.824;4.682;2023-05-07T07:24:07;24.15;;;19.95;;
37997;SDS011;24079;51.824;4.682;2023-05-07T07:26:33;29.75;;;21.63;;
37997;SDS011;24079;51.824;4.682;2023-05-07T07:28:58;24.95;;;20.13;;
37997;SDS011;24079;51.824;4.682;2023-05-07T07:31:24;24.20;;;20.00;;
37997;SDS011;24079;51.824;4.682;2023-05-07T07:33:49;26.15;;;21.75;;
37997;SDS011;24079;51.824;4.682;2023-05-07T07:36:15;29.02;;;22.23;;
37997;SDS011;24079;51.824;4.682;2023-05-07T07:38:41;26.85;;;21.95;;
37997;SDS011;24079;51.824;4.682;2023-05-07T07:41:09;28.52;;;22.67;;
37997;SDS011;24079;51.824;4.682;2023-05-07T07:43:35;26.15;;;21.52;;
37997;SDS011;24079;51.824;4.682;2023-05-07T07:46:01;30.33;;;22.52;;
37997;SDS011;24079;51.824;4.682;2023-05-07T07:48:26;26.67;;;22.13;;
37997;SDS011;24079;51.824;4.682;2023-05-07T07:50:52;28.48;;;23.92;;
37997;SDS011;24079;51.824;4.682;2023-05-07T07:53:19;25.60;;;22.60;;
37997;SDS011;24079;51.824;4.682;2023-05-07T07:55:45;30.45;;;22.70;;
37997;SDS011;24079;51.824;4.682;2023-05-07T07:58:11;27.13;;;22.58;;
37997;SDS011;24079;51.824;4.682;2023-05-07T08:00:37;26.90;;;23.02;;
37997;SDS011;24079;51.824;4.682;2023-05-07T08:03:03;28.85;;;23.88;;
37997;SDS011;24079;51.824;4.682;2023-05-07T08:05:30;27.10;;;24.20;;
37997;SDS011;24079;51.824;4.682;2023-05-07T08:07:55;30.30;;;24.20;;
37997;SDS011;24079;51.824;4.682;2023-05-07T08:10:21;32.88;;;25.00;;
37997;SDS011;24079;51.824;4.682;2023-05-07T08:12:47;27.98;;;24.73;;
37997;SDS011;24079;51.824;4.682;2023-05-07T08:15:14;31.73;;;24.60;;
37997;SDS011;24079;51.824;4.682;2023-05-07T08:17:40;32.13;;;27.45;;
37997;SDS011;24079;51.824;4.682;2023-05-07T08:20:06;34.03;;;24.98;;
37997;SDS011;24079;51.824;4.682;2023-05-07T08:22:34;33.50;;;26.50;;
37997;SDS011;24079;51.824;4.682;2023-05-07T08:25:00;27.15;;;24.00;;
37997;SDS011;24079;51.824;4.682;2023-05-07T08:27:26;26.17;;;22.88;;
37997;SDS011;24079;51.824;4.682;2023-05-07T08:29:51;26.50;;;22.48;;
37997;SDS011;24079;51.824;4.682;2023-05-07T08:32:17;27.35;;;22.17;;
37997;SDS011;24079;51.824;4.682;2023-05-07T08:34:43;26.27;;;21.35;;
37997;SDS011;24079;51.824;4.682;2023-05-07T08:37:08;24.10;;;20.13;;
37997;SDS011;24079;51.824;4.682;2023-05-07T08:39:34;26.90;;;20.30;;
37997;SDS011;24079;51.824;4.682;2023-05-07T08:42:00;24.33;;;20.23;;
37997;SDS011;24079;51.824;4.682;2023-05-07T08:44:33;25.08;;;20.20;;
37997;SDS011;24079;51.824;4.682;2023-05-07T08:47:02;24.63;;;19.33;;
37997;SDS011;24079;51.824;4.682;2023-05-07T08:49:31;22.75;;;18.02;;
37997;SDS011;24079;51.824;4.682;2023-05-07T08:51:58;21.58;;;18.10;;
37997;SDS011;24079;51.824;4.682;2023-05-07T08:54:24;20.80;;;16.85;;
37997;SDS011;24079;51.824;4.682;2023-05-07T08:56:50;26.15;;;17.83;;
37997;SDS011;24079;51.824;4.682;2023-05-07T08:59:16;19.73;;;16.55;;
37997;SDS011;24079;51.824;4.682;2023-05-07T09:01:42;22.02;;;16.15;;
37997;SDS011;24079;51.824;4.682;2023-05-07T09:04:08;18.25;;;15.48;;
37997;SDS011;24079;51.824;4.682;2023-05-07T09:06:34;19.00;;;15.25;;
37997;SDS011;24079;51.824;4.682;2023-05-07T09:09:00;19.10;;;14.30;;
37997;SDS011;24079;51.824;4.682;2023-05-07T09:11:26;20.58;;;14.80;;
37997;SDS011;24079;51.824;4.682;2023-05-07T09:13:53;15.00;;;12.38;;
37997;SDS011;24079;51.824;4.682;2023-05-07T09:16:20;15.25;;;10.80;;
37997;SDS011;24079;51.824;4.682;2023-05-07T09:18:48;18.25;;;11.88;;
37997;SDS011;24079;51.824;4.682;2023-05-07T09:21:17;15.95;;;12.20;;
37997;SDS011;24079;51.824;4.682;2023-05-07T09:23:44;12.75;;;10.38;;
37997;SDS011;24079;51.824;4.682;2023-05-07T09:26:10;13.38;;;9.95;;
37997;SDS011;24079;51.824;4.682;2023-05-07T09:28:39;14.85;;;10.10;;
37997;SDS011;24079;51.824;4.682;2023-05-07T09:31:11;13.38;;;8.27;;
37997;SDS011;24079;51.824;4.682;2023-05-07T09:33:37;13.73;;;8.30;;
37997;SDS011;24079;51.824;4.682;2023-05-07T09:36:04;9.88;;;8.57;;
37997;SDS011;24079;51.824;4.682;2023-05-07T09:38:31;9.38;;;7.72;;
37997;SDS011;24079;51.824;4.682;2023-05-07T09:41:16;10.45;;;7.93;;
37997;SDS011;24079;51.824;4.682;2023-05-07T09:43:42;14.15;;;8.18;;
37997;SDS011;24079;51.824;4.682;2023-05-07T09:46:09;12.80;;;8.90;;
37997;SDS011;24079;51.824;4.682;2023-05-07T09:48:41;9.77;;;6.80;;
37997;SDS011;24079;51.824;4.682;2023-05-07T09:51:21;10.18;;;8.18;;
37997;SDS011;24079;51.824;4.682;2023-05-07T09:53:52;12.10;;;8.52;;
37997;SDS011;24079;51.824;4.682;2023-05-07T09:56:18;9.05;;;6.20;;
37997;SDS011;24079;51.824;4.682;2023-05-07T09:58:45;9.13;;;6.00;;
37997;SDS011;24079;51.824;4.682;2023-05-07T10:01:11;11.50;;;8.18;;
37997;SDS011;24079;51.824;4.682;2023-05-07T10:03:39;8.88;;;6.50;;
37997;SDS011;24079;51.824;4.682;2023-05-07T10:06:08;6.32;;;4.60;;
37997;SDS011;24079;51.824;4.682;2023-05-07T10:08:35;11.57;;;5.75;;
37997;SDS011;24079;51.824;4.682;2023-05-07T10:11:03;10.45;;;7.43;;
37997;SDS011;24079;51.824;4.682;2023-05-07T10:13:31;11.52;;;7.75;;
37997;SDS011;24079;51.824;4.682;2023-05-07T10:16:06;10.85;;;7.10;;
37997;SDS011;24079;51.824;4.682;2023-05-07T10:18:32;12.38;;;7.30;;
37997;SDS011;24079;51.824;4.682;2023-05-07T10:21:04;8.70;;;5.80;;
37997;SDS011;24079;51.824;4.682;2023-05-07T10:23:48;13.18;;;6.57;;
37997;SDS011;24079;51.824;4.682;2023-05-07T10:26:17;9.57;;;5.70;;
37997;SDS011;24079;51.824;4.682;2023-05-07T10:28:48;9.75;;;5.55;;
37997;SDS011;24079;51.824;4.682;2023-05-07T10:31:25;10.88;;;6.80;;
37997;SDS011;24079;51.824;4.682;2023-05-07T10:34:00;10.77;;;7.57;;
37997;SDS011;24079;51.824;4.682;2023-05-07T10:36:32;14.82;;;7.90;;
37997;SDS011;24079;51.824;4.682;2023-05-07T10:38:59;12.32;;;8.15;;
37997;SDS011;24079;51.824;4.682;2023-05-07T10:41:26;14.52;;;10.50;;
37997;SDS011;24079;51.824;4.682;2023-05-07T10:43:52;13.63;;;10.68;;
37997;SDS011;24079;51.824;4.682;2023-05-07T10:46:19;13.52;;;9.48;;
37997;SDS011;24079;51.824;4.682;2023-05-07T10:51:32;11.70;;;7.82;;
37997;SDS011;24079;51.824;4.682;2023-05-07T10:56:37;16.67;;;9.07;;
37997;SDS011;24079;51.824;4.682;2023-05-07T11:02:10;14.68;;;8.98;;
37997;SDS011;24079;51.824;4.682;2023-05-07T11:04:36;10.70;;;7.55;;
37997;SDS011;24079;51.824;4.682;2023-05-07T11:15:04;13.63;;;6.63;;
37997;SDS011;24079;51.824;4.682;2023-05-07T11:17:34;15.20;;;8.32;;
37997;SDS011;24079;51.824;4.682;2023-05-07T11:20:27;14.95;;;8.05;;
37997;SDS011;24079;51.824;4.682;2023-05-07T11:26:02;12.57;;;7.93;;
37997;SDS011;24079;51.824;4.682;2023-05-07T11:28:29;11.25;;;7.72;;
37997;SDS011;24079;51.824;4.682;2023-05-07T11:30:56;15.45;;;8.77;;
37997;SDS011;24079;51.824;4.682;2023-05-07T11:33:23;13.85;;;8.10;;
37997;SDS011;24079;51.824;4.682;2023-05-07T11:35:50;11.68;;;8.13;;
37997;SDS011;24079;51.824;4.682;2023-05-07T11:38:18;10.10;;;7.45;;
37997;SDS011;24079;51.824;4.682;2023-05-07T11:43:24;13.27;;;6.50;;
37997;SDS011;24079;51.824;4.682;2023-05-07T11:45:50;14.68;;;6.72;;
37997;SDS011;24079;51.824;4.682;2023-05-07T11:48:16;10.18;;;6.68;;
37997;SDS011;24079;51.824;4.682;2023-05-07T11:50:51;12.38;;;6.28;;
37997;SDS011;24079;51.824;4.682;2023-05-07T11:53:19;13.55;;;6.43;;
37997;SDS011;24079;51.824;4.682;2023-05-07T11:55:45;9.43;;;5.03;;
37997;SDS011;24079;51.824;4.682;2023-05-07T11:58:12;13.35;;;6.07;;
37997;SDS011;24079;51.824;4.682;2023-05-07T12:00:51;9.73;;;5.28;;
37997;SDS011;24079;51.824;4.682;2023-05-07T12:03:18;12.20;;;6.18;;
37997;SDS011;24079;51.824;4.682;2023-05-07T12:05:44;9.05;;;4.70;;
37997;SDS011;24079;51.824;4.682;2023-05-07T12:08:17;13.25;;;5.72;;
37997;SDS011;24079;51.824;4.682;2023-05-07T12:10:44;12.55;;;5.88;;
37997;SDS011;24079;51.824;4.682;2023-05-07T12:13:28;12.93;;;6.90;;
37997;SDS011;24079;51.824;4.682;2023-05-07T12:15:55;10.30;;;5.60;;
37997;SDS011;24079;51.824;4.682;2023-05-07T12:18:21;9.85;;;6.13;;
37997;SDS011;24079;51.824;4.682;2023-05-07T12:20:49;13.20;;;6.07;;
37997;SDS011;24079;51.824;4.682;2023-05-07T12:23:16;11.55;;;5.38;;
37997;SDS011;24079;51.824;4.682;2023-05-07T12:25:43;14.45;;;6.18;;
37997;SDS011;24079;51.824;4.682;2023-05-07T12:28:12;14.75;;;8.27;;
37997;SDS011;24079;51.824;4.682;2023-05-07T12:30:42;17.42;;;8.80;;
37997;SDS011;24079;51.824;4.682;2023-05-07T12:33:12;14.70;;;9.02;;
37997;SDS011;24079;51.824;4.682;2023-05-07T12:35:42;15.18;;;8.93;;
37997;SDS011;24079;51.824;4.682;2023-05-07T12:38:09;15.98;;;9.57;;
37997;SDS011;24079;51.824;4.682;2023-05-07T12:40:40;21.77;;;12.55;;
37997;SDS011;24079;51.824;4.682;2023-05-07T12:43:08;23.53;;;15.07;;
37997;SDS011;24079;51.824;4.682;2023-05-07T12:45:44;27.80;;;14.63;;
37997;SDS011;24079;51.824;4.682;2023-05-07T12:48:12;17.30;;;8.88;;
37997;SDS011;24079;51.824;4.682;2023-05-07T12:50:38;17.88;;;8.32;;
37997;SDS011;24079;51.824;4.682;2023-05-07T12:53:04;16.35;;;7.38;;
37997;SDS011;24079;51.824;4.682;2023-05-07T12:55:31;13.77;;;6.40;;
37997;SDS011;24079;51.824;4.682;2023-05-07T12:58:05;13.57;;;6.97;;
37997;SDS011;24079;51.824;4.682;2023-05-07T13:00:38;14.00;;;6.13;;
37997;SDS011;24079;51.824;4.682;2023-05-07T13:03:04;14.27;;;6.57;;
37997;SDS011;24079;51.824;4.682;2023-05-07T13:05:31;10.95;;;6.07;;
37997;SDS011;24079;51.824;4.682;2023-05-07T13:07:57;14.00;;;6.35;;
37997;SDS011;24079;51.824;4.682;2023-05-07T13:10:23;8.90;;;5.80;;
37997;SDS011;24079;51.824;4.682;2023-05-07T13:12:49;10.80;;;6.45;;
37997;SDS011;24079;51.824;4.682;2023-05-07T13:15:15;9.75;;;5.82;;
37997;SDS011;24079;51.824;4.682;2023-05-07T13:17:41;8.48;;;5.55;;
37997;SDS011;24079;51.824;4.682;2023-05-07T13:20:08;9.30;;;5.43;;
37997;SDS011;24079;51.824;4.682;2023-05-07T13:22:34;9.60;;;5.90;;
37997;SDS011;24079;51.824;4.682;2023-05-07T13:25:00;10.15;;;6.22;;
37997;SDS011;24079;51.824;4.682;2023-05-07T13:27:26;13.80;;;6.80;;
37997;SDS011;24079;51.824;4.682;2023-05-07T13:29:52;9.57;;;6.85;;
37997;SDS011;24079;51.824;4.682;2023-05-07T13:32:18;15.75;;;7.10;;
37997;SDS011;24079;51.824;4.682;2023-05-07T13:34:44;11.88;;;6.82;;
37997;SDS011;24079;51.824;4.682;2023-05-07T13:37:10;11.00;;;7.25;;
37997;SDS011;24079;51.824;4.682;2023-05-07T13:39:36;10.90;;;6.80;;
37997;SDS011;24079;51.824;4.682;2023-05-07T13:42:02;11.02;;;8.00;;
37997;SDS011;24079;51.824;4.682;2023-05-07T13:44:28;12.15;;;8.00;;
37997;SDS011;24079;51.824;4.682;2023-05-07T13:46:54;13.45;;;9.48;;
37997;SDS011;24079;51.824;4.682;2023-05-07T13:49:20;13.95;;;9.65;;
37997;SDS011;24079;51.824;4.682;2023-05-07T13:51:46;15.77;;;11.15;;
37997;SDS011;24079;51.824;4.682;2023-05-07T13:54:12;20.25;;;11.32;;
37997;SDS011;24079;51.824;4.682;2023-05-07T13:56:40;13.25;;;10.13;;
37997;SDS011;24079;51.824;4.682;2023-05-07T13:59:06;16.65;;;10.77;;
37997;SDS011;24079;51.824;4.682;2023-05-07T14:01:32;18.48;;;11.15;;
37997;SDS011;24079;51.824;4.682;2023-05-07T14:03:58;15.48;;;10.65;;
37997;SDS011;24079;51.824;4.682;2023-05-07T14:06:24;15.95;;;11.13;;
37997;SDS011;24079;51.824;4.682;2023-05-07T14:08:50;15.43;;;11.57;;
37997;SDS011;24079;51.824;4.682;2023-05-07T14:11:15;18.23;;;11.20;;
37997;SDS011;24079;51.824;4.682;2023-05-07T14:13:41;15.27;;;10.35;;
37997;SDS011;24079;51.824;4.682;2023-05-07T14:16:07;16.90;;;11.35;;
37997;SDS011;24079;51.824;4.682;2023-05-07T14:18:33;18.25;;;12.27;;
37997;SDS011;24079;51.824;4.682;2023-05-07T14:20:59;18.77;;;11.75;;
37997;SDS011;24079;51.824;4.682;2023-05-07T14:23:25;18.98;;;13.43;;
37997;SDS011;24079;51.824;4.682;2023-05-07T14:25:52;14.98;;;11.77;;
37997;SDS011;24079;51.824;4.682;2023-05-07T14:28:19;18.77;;;13.38;;
37997;SDS011;24079;51.824;4.682;2023-05-07T14:30:45;22.55;;;14.85;;
37997;SDS011;24079;51.824;4.682;2023-05-07T14:33:12;22.02;;;17.88;;
37997;SDS011;24079;51.824;4.682;2023-05-07T14:43:17;27.92;;;20.05;;
37997;SDS011;24079;51.824;4.682;2023-05-07T14:45:42;26.05;;;20.05;;
37997;SDS011;24079;51.824;4.682;2023-05-07T14:48:10;22.83;;;20.25;;
37997;SDS011;24079;51.824;4.682;2023-05-07T14:50:39;32.90;;;23.63;;
37997;SDS011;24079;51.824;4.682;2023-05-07T14:53:08;27.92;;;19.90;;
37997;SDS011;24079;51.824;4.682;2023-05-07T14:55:34;24.85;;;19.98;;